createdAt,value
2022-07-29T00:01:19.138Z,0.1
2022-07-29T00:03:22.496Z,0.1
2022-07-29T00:05:25.494Z,0.1
2022-07-29T00:07:28.545Z,0.3
2022-07-29T00:09:31.600Z,0.2
2022-07-29T00:11:34.662Z,0.1
2022-07-29T00:15:40.786Z,0.2
2022-07-29T00:17:46.950Z,0.3
2022-07-29T00:19:50.008Z,0.1
2022-07-29T00:21:53.090Z,0.4
2022-07-29T00:23:56.136Z,0.2
2022-07-29T00:25:59.179Z,5.6
2022-07-29T00:28:02.230Z,0.2
2022-07-29T00:30:05.302Z,0.2
2022-07-29T00:32:11.497Z,0.2
2022-07-29T00:34:14.825Z,0.6
2022-07-29T00:36:17.638Z,0.1
2022-07-29T00:37:20.764Z,0.5
2022-07-29T00:39:23.781Z,0.1
2022-07-29T00:41:26.856Z,0.1
2022-07-29T00:43:29.924Z,0.6
2022-07-29T00:45:36.331Z,0.2
2022-07-29T00:47:39.362Z,0.5
2022-07-29T00:49:42.525Z,0.8
2022-07-29T00:51:45.712Z,0.7
2022-07-29T00:53:48.855Z,0.2
2022-07-29T00:55:52.449Z,0.3
2022-07-29T00:57:55.085Z,0.2
2022-07-29T01:02:04.639Z,0.2
2022-07-29T01:06:11.058Z,0.1
2022-07-29T01:08:14.051Z,0.7
2022-07-29T01:12:20.471Z,0.3
2022-07-29T01:14:26.571Z,1.6
2022-07-29T01:18:32.885Z,0.4
2022-07-29T01:20:36.050Z,0.2
2022-07-29T01:22:39.232Z,0.5
2022-07-29T01:24:42.437Z,0.8
2022-07-29T01:26:45.560Z,0.2
2022-07-29T01:28:51.955Z,0.3
2022-07-29T01:30:55.178Z,0.9
2022-07-29T01:32:58.285Z,0.5
2022-07-29T01:40:10.992Z,0.1
2022-07-29T01:42:17.390Z,0.5
2022-07-29T01:44:20.547Z,0.1
2022-07-29T01:46:23.748Z,0.2
2022-07-29T01:50:30.051Z,0.3
2022-07-29T01:52:33.192Z,0.3
2022-07-29T01:56:42.648Z,0.6
2022-07-29T01:58:45.809Z,0.5
2022-07-29T02:00:48.965Z,0.2
2022-07-29T02:02:52.133Z,0.7
2022-07-29T02:04:55.220Z,1.5
2022-07-29T02:06:58.363Z,0.2
2022-07-29T02:11:07.915Z,0.1
2022-07-29T02:13:11.083Z,0.3
2022-07-29T02:15:14.221Z,1.3
2022-07-29T02:17:17.411Z,0.5
2022-07-29T02:19:20.569Z,0.4
2022-07-29T02:21:23.725Z,0.2
2022-07-29T02:23:28.370Z,0.2
2022-07-29T02:25:38.195Z,0.3
2022-07-29T02:27:37.902Z,0.4
2022-07-29T02:30:44.329Z,0.6
2022-07-29T02:32:47.413Z,0.3
2022-07-29T02:34:50.567Z,0.5
2022-07-29T02:36:53.747Z,0.3
2022-07-29T02:39:00.145Z,0.6
2022-07-29T02:41:03.296Z,0.3
2022-07-29T02:43:06.455Z,0.2
2022-07-29T02:45:09.637Z,0.3
2022-07-29T02:47:12.790Z,0.4
2022-07-29T02:49:16.055Z,0.1
2022-07-29T02:53:25.507Z,0.3
2022-07-29T02:55:28.692Z,0.1
2022-07-29T02:57:31.858Z,0.4
2022-07-29T02:59:35.024Z,0.1
2022-07-29T03:01:38.208Z,0.6
2022-07-29T03:03:41.329Z,0.1
2022-07-29T03:05:44.478Z,0.2
2022-07-29T03:07:50.880Z,0.3
2022-07-29T03:09:54.046Z,0.4
2022-07-29T03:11:57.241Z,0.6
2022-07-29T03:16:03.586Z,0.2
2022-07-29T03:18:06.727Z,0.1
2022-07-29T03:26:22.511Z,0.7
2022-07-29T03:28:46.670Z,0.3
2022-07-29T03:30:49.799Z,0.4
2022-07-29T03:32:52.891Z,0.5
2022-07-29T03:34:59.198Z,0.1
2022-07-29T03:37:02.247Z,0.2
2022-07-29T03:39:05.410Z,0.1
2022-07-29T03:41:08.488Z,0.4
2022-07-29T03:45:14.676Z,0.3
2022-07-29T03:47:17.746Z,0.1
2022-07-29T03:49:24.185Z,0.1
2022-07-29T03:51:33.195Z,0.1
2022-07-29T03:55:33.645Z,0
2022-07-29T03:57:36.692Z,0.4
2022-07-29T03:59:39.870Z,0.2
2022-07-29T04:01:43.014Z,0.1
2022-07-29T04:03:49.232Z,0.4
2022-07-29T04:05:52.163Z,0.8
2022-07-29T04:07:55.232Z,0.3
2022-07-29T04:09:58.297Z,0.3
2022-07-29T04:14:04.539Z,0.4
2022-07-29T04:16:07.617Z,0.2
2022-07-29T04:18:13.984Z,0.3
2022-07-29T04:20:17.140Z,0.2
2022-07-29T04:22:20.307Z,0.8
2022-07-29T04:23:23.495Z,1.2
2022-07-29T04:25:26.665Z,1.2
2022-07-29T04:27:29.820Z,1.1
2022-07-29T04:29:32.980Z,1.4
2022-07-29T04:31:39.396Z,0.6
2022-07-29T04:33:42.550Z,1
2022-07-29T04:35:50.371Z,1.5
2022-07-29T04:37:48.852Z,0.8
2022-07-29T04:39:52.015Z,1.1
2022-07-29T04:41:55.569Z,0.9
2022-07-29T04:43:58.352Z,0.8
2022-07-29T04:46:04.820Z,1
2022-07-29T04:48:07.939Z,0.7
2022-07-29T04:50:11.060Z,1.5
2022-07-29T04:52:14.223Z,1.1
2022-07-29T04:54:17.869Z,0.4
2022-07-29T04:58:23.726Z,0.8
2022-07-29T05:02:33.365Z,1.2
2022-07-29T05:04:36.433Z,0.5
2022-07-29T05:06:39.618Z,1.5
2022-07-29T05:08:42.753Z,1
2022-07-29T05:10:45.914Z,1.3
2022-07-29T05:12:49.077Z,0.9
2022-07-29T05:14:55.492Z,0.8
2022-07-29T05:16:58.647Z,0.7
2022-07-29T05:22:08.177Z,1
2022-07-29T05:24:11.304Z,1.2
2022-07-29T05:28:20.859Z,1.6
2022-07-29T05:30:24.034Z,1.5
2022-07-29T05:32:27.198Z,0.9
2022-07-29T05:34:30.372Z,1.3
2022-07-29T05:36:33.507Z,1.3
2022-07-29T05:38:36.974Z,0.7
2022-07-29T05:40:39.829Z,1.2
2022-07-29T05:42:46.229Z,2.4
2022-07-29T05:46:52.562Z,0.9
2022-07-29T05:48:55.775Z,0.7
2022-07-29T05:53:02.092Z,0.5
2022-07-29T05:55:05.258Z,0.7
2022-07-29T05:57:11.655Z,1.4
2022-07-29T05:59:17.793Z,1.2
2022-07-29T06:01:17.989Z,0.3
2022-07-29T06:03:21.141Z,0.7
2022-07-29T06:05:24.286Z,0.9
2022-07-29T06:07:27.440Z,0.9
2022-07-29T06:09:30.638Z,1.8
2022-07-29T06:11:37.013Z,1.2
2022-07-29T06:13:40.192Z,1.3
2022-07-29T06:15:43.400Z,2.6
2022-07-29T06:20:52.879Z,0.8
2022-07-29T06:22:56.034Z,1.3
2022-07-29T06:25:02.431Z,2.2
2022-07-29T06:27:05.590Z,1.6
2022-07-29T06:31:12.027Z,1.4
2022-07-29T06:33:15.075Z,1.4
2022-07-29T06:35:39.103Z,2
2022-07-29T06:37:21.458Z,1.4
2022-07-29T06:39:27.814Z,1.2
2022-07-29T06:41:30.961Z,0.9
2022-07-29T06:43:34.149Z,1.9
2022-07-29T06:45:37.264Z,1.3
2022-07-29T06:47:40.365Z,0.6
2022-07-29T06:49:43.474Z,1.1
2022-07-29T06:51:46.511Z,1.3
2022-07-29T06:54:00.373Z,0.9
2022-07-29T06:55:55.740Z,0.4
2022-07-29T06:57:58.787Z,0.4
2022-07-29T07:00:01.857Z,0.9
2022-07-29T07:02:04.950Z,0.4
2022-07-29T07:04:07.975Z,0.6
2022-07-29T07:10:20.270Z,0.9
2022-07-29T07:12:23.312Z,0.8
2022-07-29T07:14:46.886Z,1.1
2022-07-29T07:18:53.022Z,0.8
2022-07-29T07:23:02.256Z,1
2022-07-29T07:25:05.297Z,1.4
2022-07-29T07:27:08.343Z,1
2022-07-29T07:29:11.397Z,1.2
2022-07-29T07:31:14.444Z,0.4
2022-07-29T07:33:17.520Z,0.3
2022-07-29T07:35:23.678Z,0.7
2022-07-29T07:37:26.755Z,1
2022-07-29T07:39:29.773Z,1.2
2022-07-29T07:41:32.815Z,0.3
2022-07-29T07:43:35.858Z,0.4
2022-07-29T07:45:38.989Z,1.2
2022-07-29T07:47:41.960Z,0.5
2022-07-29T07:51:51.256Z,0.3
2022-07-29T07:53:54.200Z,0.3
2022-07-29T07:56:10.920Z,0.3
2022-07-29T08:00:03.344Z,0.3
2022-07-29T08:02:06.469Z,0.8
2022-07-29T08:04:12.571Z,0.4
2022-07-29T08:06:15.543Z,0.8
2022-07-29T08:08:18.576Z,0.4
2022-07-29T08:09:29.429Z,1.1
2022-07-29T08:11:24.701Z,0.3
2022-07-29T08:13:27.697Z,1.3
2022-07-29T08:15:30.746Z,0.7
2022-07-29T08:17:38.449Z,0.4
2022-07-29T08:19:41.462Z,0.6
2022-07-29T08:21:44.502Z,1
2022-07-29T08:27:53.574Z,0.3
2022-07-29T08:32:03.001Z,1.3
2022-07-29T08:38:12.016Z,1.3
2022-07-29T08:40:15.038Z,0.9
2022-07-29T08:42:18.051Z,0.3
2022-07-29T08:44:25.317Z,0.9
2022-07-29T08:46:27.180Z,2.5
2022-07-29T08:50:33.232Z,0.8
2022-07-29T08:52:36.259Z,0.7
2022-07-29T08:54:39.305Z,0.3
2022-07-29T08:56:42.494Z,0.8
2022-07-29T08:58:45.719Z,0.5
2022-07-29T09:00:51.469Z,0.6
2022-07-29T09:02:54.472Z,0.7
2022-07-29T09:04:57.451Z,0.4
2022-07-29T09:08:03.493Z,0.5
2022-07-29T09:14:15.686Z,0.7
2022-07-29T09:18:30.322Z,0.3
2022-07-29T09:20:24.627Z,0.6
2022-07-29T09:22:27.616Z,0.4
2022-07-29T09:24:30.580Z,1.1
2022-07-29T09:26:33.596Z,2.9
2022-07-29T09:30:42.688Z,0.6
2022-07-29T09:32:45.700Z,1.1
2022-07-29T09:34:48.667Z,1
2022-07-29T09:38:54.669Z,0.8
2022-07-29T09:43:03.731Z,0.6
2022-07-29T09:45:06.711Z,0.7
2022-07-29T09:47:09.719Z,0.8
2022-07-29T09:49:12.735Z,1.5
2022-07-29T09:51:19.791Z,1.3
2022-07-29T09:53:18.621Z,1.5
2022-07-29T09:55:21.597Z,1.4
2022-07-29T09:57:30.921Z,1.4
2022-07-29T09:59:30.666Z,0.4
2022-07-29T10:01:33.688Z,0.8
2022-07-29T10:02:36.756Z,0.7
2022-07-29T10:04:39.729Z,1.2
2022-07-29T10:06:42.827Z,0.7
2022-07-29T10:08:45.667Z,0.7
2022-07-29T10:10:51.778Z,1.2
2022-07-29T10:12:54.768Z,0.5
2022-07-29T10:14:57.716Z,0.7
2022-07-29T10:17:00.714Z,0.7
2022-07-29T10:23:09.660Z,1.5
2022-07-29T10:33:27.717Z,1.8
2022-07-29T10:35:30.664Z,0.9
2022-07-29T10:37:35.370Z,3.6
2022-07-29T10:39:44.336Z,0.7
2022-07-29T10:41:44.315Z,0.8
2022-07-29T10:43:45.777Z,1
2022-07-29T10:45:48.726Z,1.6
2022-07-29T10:47:51.684Z,0.3
2022-07-29T10:49:54.656Z,1.4
2022-07-29T10:51:58.086Z,0.6
2022-07-29T10:54:03.715Z,0.8
2022-07-29T10:56:06.710Z,0.5
2022-07-29T10:58:09.665Z,1.6
2022-07-29T11:00:31.139Z,1.8
2022-07-29T11:02:42.420Z,1.3
2022-07-29T11:04:37.049Z,0.5
2022-07-29T11:06:43.292Z,0.7
2022-07-29T11:08:46.948Z,1.4
2022-07-29T11:10:49.067Z,0.7
2022-07-29T11:12:51.989Z,1
2022-07-29T11:14:54.927Z,1.8
2022-07-29T11:16:57.901Z,2.4
2022-07-29T11:19:00.824Z,0.6
2022-07-29T11:23:09.846Z,1.8
2022-07-29T11:25:12.786Z,0.8
2022-07-29T11:27:17.998Z,0.7
2022-07-29T11:29:18.660Z,0.8
2022-07-29T11:31:21.584Z,0.7
2022-07-29T11:33:37.606Z,0.6
2022-07-29T11:35:37.941Z,1.2
2022-07-29T11:37:33.488Z,1.1
2022-07-29T11:39:37.626Z,1.6
2022-07-29T11:41:39.321Z,1.2
2022-07-29T11:43:42.248Z,1.3
2022-07-29T11:45:45.530Z,1.5
2022-07-29T11:47:48.064Z,1.4
2022-07-29T11:49:54.036Z,1.4
2022-07-29T11:51:57.033Z,1.5
2022-07-29T11:54:04.127Z,0.6
2022-07-29T11:59:08.603Z,1.3
2022-07-29T12:05:35.805Z,0.7
2022-07-29T12:11:28.355Z,1.1
2022-07-29T12:13:37.818Z,1.2
2022-07-29T12:15:46.136Z,0.8
2022-07-29T12:17:39.849Z,1.1
2022-07-29T12:19:42.611Z,1.9
2022-07-29T12:21:45.717Z,0.9
2022-07-29T12:23:48.093Z,0.4
2022-07-29T12:25:50.858Z,0.3
2022-07-29T12:27:53.567Z,0.5
2022-07-29T12:32:02.405Z,0.8
2022-07-29T12:36:09.453Z,1
2022-07-29T12:38:10.284Z,0.6
2022-07-29T12:44:18.349Z,0.4
2022-07-29T12:48:27.561Z,0.7
2022-07-29T12:50:30.221Z,1.1
2022-07-29T12:51:33.168Z,0.3
2022-07-29T12:53:35.985Z,0.7
2022-07-29T12:55:38.416Z,0.6
2022-07-29T12:57:41.113Z,0.4
2022-07-29T13:01:49.687Z,0.9
2022-07-29T13:07:57.654Z,0.4
2022-07-29T13:20:16.301Z,0.7
2022-07-29T13:22:18.858Z,0.8
2022-07-29T13:24:21.441Z,0.1
2022-07-29T13:28:29.826Z,0.5
2022-07-29T13:30:32.530Z,0.6
2022-07-29T13:32:35.114Z,1
2022-07-29T13:34:37.755Z,1.3
2022-07-29T13:36:41.769Z,0.3
2022-07-29T13:40:45.764Z,0.4
2022-07-29T13:42:51.648Z,0.6
2022-07-29T13:44:54.330Z,0.7
2022-07-29T13:46:57.108Z,0.5
2022-07-29T13:47:59.980Z,0.6
2022-07-29T13:50:02.741Z,1.5
2022-07-29T13:52:05.421Z,0.2
2022-07-29T13:54:08.168Z,0.2
2022-07-29T13:56:14.058Z,0.9
2022-07-29T14:00:19.530Z,0.8
2022-07-29T14:02:25.845Z,0.1
2022-07-29T14:04:25.085Z,0.4
2022-07-29T14:06:27.746Z,0.6
2022-07-29T14:08:30.502Z,0.5
2022-07-29T14:10:37.958Z,0.6
2022-07-29T14:12:40.674Z,0.1
2022-07-29T14:18:48.858Z,1.6
2022-07-29T14:20:51.563Z,0.2
2022-07-29T14:22:54.290Z,0.5
2022-07-29T14:25:05.097Z,0.4
2022-07-29T14:27:02.952Z,1.3
2022-07-29T14:31:08.341Z,1
2022-07-29T14:33:11.087Z,0.4
2022-07-29T14:37:16.519Z,0.5
2022-07-29T14:39:22.362Z,0.9
2022-07-29T14:41:25.027Z,0.4
2022-07-29T14:43:27.719Z,0.6
2022-07-29T14:47:59.025Z,0.3
2022-07-29T14:50:01.579Z,0.5
2022-07-29T14:52:07.122Z,0.3
2022-07-29T14:54:09.610Z,0.3
2022-07-29T14:56:35.626Z,1
2022-07-29T14:58:16.481Z,1.8
2022-07-29T15:00:17.102Z,0.1
2022-07-29T15:02:19.680Z,1.3
2022-07-29T15:04:22.012Z,0.3
2022-07-29T15:06:27.563Z,1
2022-07-29T15:08:29.975Z,0.7
2022-07-29T15:10:32.431Z,0.5
2022-07-29T15:12:34.869Z,0.1
2022-07-29T15:14:37.280Z,0.9
2022-07-29T15:16:41.926Z,0.2
2022-07-29T15:18:42.164Z,0.1
2022-07-29T15:20:47.665Z,0.7
2022-07-29T15:22:50.097Z,0.5
2022-07-29T15:24:52.509Z,1.6
2022-07-29T15:26:54.927Z,0.8
2022-07-29T15:28:57.349Z,0.5
2022-07-29T15:30:59.739Z,0.4
2022-07-29T15:35:07.674Z,0.3
2022-07-29T15:40:15.253Z,0.3
2022-07-29T15:42:17.835Z,4.8
2022-07-29T15:44:20.953Z,0.6
2022-07-29T15:46:22.479Z,2.9
2022-07-29T15:48:27.946Z,0.3
2022-07-29T15:50:30.379Z,0.4
2022-07-29T15:52:32.808Z,0.3
2022-07-29T15:54:35.221Z,0.8
2022-07-29T15:56:37.664Z,0.7
2022-07-29T15:58:40.119Z,0.5
2022-07-29T16:00:42.698Z,0.5
2022-07-29T16:02:48.175Z,2.6
2022-07-29T16:04:50.665Z,0.6
2022-07-29T16:06:53.196Z,0.1
2022-07-29T16:10:58.365Z,0.7
2022-07-29T16:13:00.880Z,1
2022-07-29T16:15:09.090Z,0.3
2022-07-29T16:17:09.283Z,0.9
2022-07-29T16:19:11.794Z,2.3
2022-07-29T16:23:16.901Z,0.5
2022-07-29T16:25:19.389Z,1.7
2022-07-29T16:27:21.890Z,0.3
2022-07-29T16:29:24.442Z,2
2022-07-29T16:31:30.073Z,0.2
2022-07-29T16:33:55.023Z,0.3
2022-07-29T16:35:39.633Z,0.8
2022-07-29T16:36:38.070Z,0.6
2022-07-29T16:38:40.713Z,0.1
2022-07-29T16:40:43.379Z,0.3
2022-07-29T16:44:51.917Z,0.5
2022-07-29T16:48:57.444Z,1.4
2022-07-29T16:51:00.145Z,0.9
2022-07-29T16:53:02.873Z,0.4
2022-07-29T16:55:05.655Z,1.4
2022-07-29T16:57:08.450Z,0.3
2022-07-29T16:59:14.428Z,1.2
2022-07-29T17:01:17.339Z,2.1
2022-07-29T17:03:20.071Z,1
2022-07-29T17:05:22.895Z,0.1
2022-07-29T17:07:25.747Z,0.8
2022-07-29T17:09:28.606Z,0.3
2022-07-29T17:13:37.461Z,0.6
2022-07-29T17:15:40.385Z,0.1
2022-07-29T17:17:56.491Z,0.6
2022-07-29T17:19:46.110Z,0.1
2022-07-29T17:21:49.272Z,0.3
2022-07-29T17:23:51.868Z,0.3
2022-07-29T17:25:54.764Z,0.2
2022-07-29T17:28:01.227Z,0.4
2022-07-29T17:30:03.709Z,0.5
2022-07-29T17:32:07.667Z,0.3
2022-07-29T17:33:09.613Z,0.7
2022-07-29T17:37:15.419Z,0.5
2022-07-29T17:39:18.318Z,0.6
2022-07-29T17:41:24.386Z,1.9
2022-07-29T17:43:27.286Z,2.6
2022-07-29T17:45:49.044Z,1.3
2022-07-29T17:47:33.138Z,1
2022-07-29T17:55:47.908Z,1.6
2022-07-29T18:08:05.396Z,0.5
2022-07-29T18:14:17.297Z,0.5
2022-07-29T18:18:23.128Z,0.2
2022-07-29T18:22:29.005Z,1
2022-07-29T18:24:35.071Z,1.4
2022-07-29T18:26:37.962Z,1.1
2022-07-29T18:31:10.199Z,1
2022-07-29T18:33:22.014Z,1.9
2022-07-29T18:38:01.419Z,0.6
2022-07-29T18:39:24.978Z,0.2
2022-07-29T18:41:28.353Z,1.2
2022-07-29T18:43:30.916Z,1.3
2022-07-29T18:45:33.815Z,2.3
2022-07-29T18:49:39.710Z,0.1
2022-07-29T18:51:45.772Z,0.7
2022-07-29T18:53:48.711Z,0.5
2022-07-29T18:55:51.665Z,0.7
2022-07-29T18:57:56.876Z,1.3
2022-07-29T18:59:57.574Z,2.5
2022-07-29T19:02:00.705Z,3.7
2022-07-29T19:04:03.505Z,5.6
2022-07-29T19:06:09.558Z,0.9
2022-07-29T19:08:12.534Z,3.1
2022-07-29T19:10:15.482Z,1.4
2022-07-29T19:12:18.440Z,0.2
2022-07-29T19:14:21.406Z,0.6
2022-07-29T19:16:24.470Z,0.1
2022-07-29T19:18:27.333Z,0.2
2022-07-29T19:25:53.433Z,0.4
2022-07-29T19:27:45.380Z,1.1
2022-07-29T19:29:48.340Z,4.1
2022-07-29T19:31:51.328Z,2.3
2022-07-29T19:33:57.423Z,9.3
2022-07-29T19:36:00.397Z,4.2
2022-07-29T19:38:03.375Z,4.4
2022-07-29T19:40:06.356Z,3.6
2022-07-29T19:42:09.340Z,0.6
2022-07-29T19:44:12.299Z,1.8
2022-07-29T19:46:15.461Z,0.5
2022-07-29T19:48:21.398Z,0.2
2022-07-29T19:50:24.379Z,0.3
2022-07-29T19:52:27.378Z,0.7
2022-07-29T19:54:30.375Z,1.2
2022-07-29T19:56:33.376Z,3.2
2022-07-29T19:58:36.366Z,0.9
2022-07-29T20:00:40.087Z,1.3
2022-07-29T20:02:45.459Z,1
2022-07-29T20:04:50.039Z,1
2022-07-29T20:06:53.101Z,0.8
2022-07-29T20:08:58.602Z,0.6
2022-07-29T20:10:58.894Z,1.3
2022-07-29T20:13:01.939Z,1.3
2022-07-29T20:15:04.853Z,2.3
2022-07-29T20:17:10.977Z,1.1
2022-07-29T20:19:13.930Z,4.6
2022-07-29T20:21:16.903Z,3.8
2022-07-29T20:22:21.206Z,2.2
2022-07-29T20:24:22.938Z,0.9
2022-07-29T20:26:25.930Z,2
2022-07-29T20:28:28.918Z,3.5
2022-07-29T20:30:35.017Z,1.8
2022-07-29T20:32:37.992Z,1.2
2022-07-29T20:34:41.005Z,1.6
2022-07-29T20:36:44.002Z,2.4
2022-07-29T20:38:46.991Z,1
2022-07-29T20:40:49.984Z,0.5
2022-07-29T20:42:52.962Z,1.4
2022-07-29T20:44:59.081Z,1.2
2022-07-29T20:49:05.082Z,1
2022-07-29T20:51:08.057Z,0.5
2022-07-29T20:53:11.080Z,0.4
2022-07-29T20:55:14.075Z,1.5
2022-07-29T20:57:17.074Z,1.4
2022-07-29T20:59:23.205Z,2.1
2022-07-29T21:03:29.213Z,1.2
2022-07-29T21:07:35.285Z,0.7
2022-07-29T21:09:38.257Z,1.9
2022-07-29T21:13:47.409Z,1.8
2022-07-29T21:15:50.455Z,2.4
2022-07-29T21:17:53.437Z,1.3
2022-07-29T21:18:56.535Z,3.5
2022-07-29T21:20:59.573Z,2.5
2022-07-29T21:23:02.560Z,1.9
2022-07-29T21:25:05.594Z,1.6
2022-07-29T21:29:14.775Z,1.2
2022-07-29T21:31:17.800Z,1.3
2022-07-29T21:37:26.864Z,1.7
2022-07-29T21:39:29.872Z,2.1
2022-07-29T21:41:36.104Z,1.3
2022-07-29T21:45:42.178Z,6
2022-07-29T21:47:45.076Z,1.8
2022-07-29T21:51:51.086Z,2.5
2022-07-29T21:53:54.135Z,2.2
2022-07-29T22:00:06.327Z,2.4
2022-07-29T22:06:16.702Z,2.6
2022-07-29T22:08:18.464Z,1.7
2022-07-29T22:10:24.628Z,2.9
2022-07-29T22:12:27.651Z,1.5
2022-07-29T22:16:58.010Z,2.2
2022-07-29T22:18:57.303Z,2.8
2022-07-29T22:21:00.333Z,2.6
2022-07-29T22:23:06.470Z,4.7
2022-07-29T22:25:09.511Z,3.9
2022-07-29T22:27:12.553Z,3.3
2022-07-29T22:29:15.615Z,3.5
2022-07-29T22:33:21.712Z,4
2022-07-29T22:35:24.923Z,3.4
2022-07-29T22:37:30.882Z,3
2022-07-29T22:39:33.913Z,3.6
2022-07-29T22:41:36.947Z,3.7
2022-07-29T22:45:43.098Z,4.2
2022-07-29T22:47:48.485Z,5.9
2022-07-29T22:49:49.110Z,6.8
2022-07-29T22:51:55.273Z,6.4
2022-07-29T22:53:58.318Z,3.9
2022-07-29T22:56:01.372Z,7.5
2022-07-29T22:58:04.411Z,13.2
2022-07-29T23:00:07.672Z,5
2022-07-29T23:02:10.497Z,6.1
2022-07-29T23:04:13.599Z,5
2022-07-29T23:10:25.775Z,4.9
2022-07-29T23:15:34.983Z,5.1
2022-07-29T23:21:47.197Z,7.3
2022-07-29T23:27:56.306Z,4.6
2022-07-29T23:29:59.367Z,6.4
2022-07-29T23:36:11.620Z,5.3
2022-07-29T23:38:14.681Z,7.6
2022-07-29T23:40:17.699Z,6.1
2022-07-29T23:42:20.737Z,6.2
2022-07-29T23:44:23.812Z,5.8
2022-07-29T23:50:36.030Z,7.3
2022-07-29T23:54:42.113Z,5.6
2022-07-29T23:56:45.174Z,6.1
2022-07-29T23:58:48.208Z,7.4
